createdAt,value
2023-01-31T00:02:25.804Z,70.15
2023-01-31T00:05:00.301Z,68.28
2023-01-31T00:07:32.487Z,64.63
2023-01-31T00:10:04.861Z,67.13
2023-01-31T00:12:36.127Z,72.18
2023-01-31T00:15:08.785Z,67.82
2023-01-31T00:17:40.032Z,70.28
2023-01-31T00:20:11.739Z,67.90
2023-01-31T00:22:42.680Z,71.60
2023-01-31T00:25:13.682Z,69.88
2023-01-31T00:27:44.755Z,67.88
2023-01-31T00:30:15.995Z,67.10
2023-01-31T00:32:58.707Z,66.90
2023-01-31T00:35:30.245Z,60.67
2023-01-31T00:38:02.395Z,60.03
2023-01-31T00:40:33.340Z,63.10
2023-01-31T00:43:04.009Z,66.90
2023-01-31T00:45:38.917Z,59.13
2023-01-31T00:48:09.868Z,62.45
2023-01-31T00:50:41.062Z,68.88
2023-01-31T00:53:12.403Z,60.63
2023-01-31T00:55:43.714Z,63.85
2023-01-31T00:58:15.879Z,63.42
2023-01-31T01:00:48.532Z,61.08
2023-01-31T01:03:21.221Z,61.72
2023-01-31T01:05:52.176Z,63.83
2023-01-31T01:08:23.119Z,62.17
2023-01-31T01:10:54.323Z,54.88
2023-01-31T01:13:29.997Z,58.05
2023-01-31T01:16:14.079Z,56.72
2023-01-31T01:18:47.934Z,61.50
2023-01-31T01:21:22.107Z,60.92
2023-01-31T01:23:54.135Z,55.72
2023-01-31T01:26:28.798Z,56.50
2023-01-31T01:31:53.387Z,59.20
2023-01-31T01:34:48.821Z,54.15
2023-01-31T01:37:22.816Z,58.10
2023-01-31T01:42:50.410Z,53.40
2023-01-31T01:48:10.625Z,52.75
2023-01-31T01:50:46.404Z,53.25
2023-01-31T01:53:26.073Z,53.42
2023-01-31T01:56:11.403Z,51.88
2023-01-31T01:59:27.680Z,53.38
2023-01-31T02:05:24.211Z,50.08
2023-01-31T02:08:17.830Z,53.25
2023-01-31T02:16:09.797Z,46.58
2023-01-31T02:19:01.657Z,53.03
2023-01-31T02:21:53.965Z,52.13
2023-01-31T02:24:54.900Z,52.80
2023-01-31T02:27:46.639Z,57.75
2023-01-31T02:31:05.692Z,52.28
2023-01-31T02:33:38.357Z,51.78
2023-01-31T02:36:26.026Z,51.33
2023-01-31T02:39:19.495Z,46.88
2023-01-31T02:41:59.951Z,48.53
2023-01-31T02:45:11.135Z,49.25
2023-01-31T02:48:00.551Z,48.25
2023-01-31T02:50:46.771Z,43.35
2023-01-31T02:53:30.446Z,46.90
2023-01-31T02:56:16.772Z,44.03
2023-01-31T02:59:12.526Z,45.53
2023-01-31T03:01:49.646Z,44.40
2023-01-31T03:04:21.419Z,46.97
2023-01-31T03:07:18.995Z,44.42
2023-01-31T03:10:45.857Z,52.13
2023-01-31T03:13:53.003Z,49.58
2023-01-31T03:16:53.394Z,48.63
2023-01-31T03:22:28.453Z,43.03
2023-01-31T03:25:00.935Z,46.60
2023-01-31T03:27:33.598Z,52.63
2023-01-31T03:30:25.642Z,42.53
2023-01-31T03:33:04.558Z,41.85
2023-01-31T03:35:39.168Z,45.38
2023-01-31T03:38:32.678Z,42.67
2023-01-31T03:41:15.034Z,41.10
2023-01-31T03:43:53.250Z,48.33
2023-01-31T03:46:31.120Z,44.30
2023-01-31T03:49:28.071Z,41.08
2023-01-31T03:55:12.425Z,41.63
2023-01-31T03:57:45.598Z,41.10
2023-01-31T04:00:22.434Z,43.65
2023-01-31T04:03:26.716Z,43.85
2023-01-31T04:05:59.628Z,42.70
2023-01-31T04:08:32.790Z,36.25
2023-01-31T04:11:13.142Z,42.78
2023-01-31T04:13:45.826Z,41.53
2023-01-31T04:16:18.529Z,39.85
2023-01-31T04:18:49.583Z,41.17
2023-01-31T04:21:20.859Z,36.13
2023-01-31T04:26:36.860Z,41.05
2023-01-31T04:29:12.045Z,40.80
2023-01-31T04:31:43.484Z,37.80
2023-01-31T04:34:16.057Z,40.63
2023-01-31T04:36:47.200Z,38.35
2023-01-31T04:39:21.315Z,39.97
2023-01-31T04:41:52.649Z,37.30
2023-01-31T04:44:23.793Z,34.00
2023-01-31T04:46:55.060Z,34.28
2023-01-31T04:49:26.609Z,37.63
2023-01-31T04:54:45.795Z,32.67
2023-01-31T04:57:36.836Z,37.42
2023-01-31T05:00:08.835Z,30.75
2023-01-31T05:03:40.051Z,32.13
2023-01-31T05:06:11.672Z,36.17
2023-01-31T05:08:43.956Z,36.85
2023-01-31T05:11:19.316Z,37.13
2023-01-31T05:14:10.363Z,37.53
2023-01-31T05:16:41.381Z,38.65
2023-01-31T05:19:12.898Z,34.30
2023-01-31T05:22:05.194Z,32.63
2023-01-31T05:24:38.485Z,30.27
2023-01-31T05:27:11.629Z,33.13
2023-01-31T05:29:43.281Z,33.70
2023-01-31T05:32:34.236Z,32.63
2023-01-31T05:35:06.291Z,34.70
2023-01-31T05:37:37.531Z,34.15
2023-01-31T05:40:09.960Z,31.05
2023-01-31T05:43:04.141Z,29.40
2023-01-31T05:46:00.677Z,32.65
2023-01-31T05:48:33.515Z,30.58
2023-01-31T05:51:06.118Z,29.67
2023-01-31T05:53:37.677Z,31.20
2023-01-31T05:56:29.637Z,29.75
2023-01-31T05:59:04.364Z,27.98
2023-01-31T06:01:36.884Z,29.45
2023-01-31T06:04:32.757Z,29.15
2023-01-31T06:07:07.355Z,26.98
2023-01-31T06:09:40.328Z,27.88
2023-01-31T06:12:17.777Z,28.30
2023-01-31T06:14:48.915Z,30.55
2023-01-31T06:17:43.155Z,28.73
2023-01-31T06:20:15.949Z,27.85
2023-01-31T06:22:47.195Z,32.90
2023-01-31T06:25:22.853Z,25.58
2023-01-31T06:27:54.108Z,29.92
2023-01-31T06:33:10.799Z,28.92
2023-01-31T06:35:42.394Z,26.52
2023-01-31T06:38:17.886Z,25.95
2023-01-31T06:41:10.238Z,27.83
2023-01-31T06:43:42.606Z,24.38
2023-01-31T06:46:14.838Z,26.48
2023-01-31T06:48:46.312Z,25.33
2023-01-31T06:51:25.076Z,21.88
2023-01-31T06:54:18.540Z,31.58
2023-01-31T06:56:49.976Z,23.10
2023-01-31T06:59:20.948Z,22.08
2023-01-31T07:01:53.414Z,25.85
2023-01-31T07:04:48.433Z,21.98
2023-01-31T07:07:19.848Z,28.85
2023-01-31T07:09:53.331Z,23.52
2023-01-31T07:12:25.606Z,21.75
2023-01-31T07:14:58.290Z,22.85
2023-01-31T07:17:30.125Z,26.38
2023-01-31T07:20:21.422Z,22.00
2023-01-31T07:23:01.349Z,19.20
2023-01-31T07:25:36.894Z,24.45
2023-01-31T07:30:53.096Z,22.15
2023-01-31T07:33:26.643Z,22.73
2023-01-31T07:35:57.977Z,23.75
2023-01-31T07:38:29.906Z,22.80
2023-01-31T07:41:06.343Z,24.70
2023-01-31T07:43:39.238Z,20.13
2023-01-31T07:46:12.051Z,18.83
2023-01-31T07:48:43.245Z,20.42
2023-01-31T07:51:14.837Z,21.85
2023-01-31T07:53:45.858Z,22.17
2023-01-31T07:56:28.332Z,20.88
2023-01-31T07:59:04.849Z,21.52
2023-01-31T08:01:54.497Z,19.77
2023-01-31T08:04:26.540Z,20.73
2023-01-31T08:07:01.131Z,19.83
2023-01-31T08:09:32.913Z,19.23
2023-01-31T08:12:05.473Z,22.65
2023-01-31T08:14:36.707Z,22.55
2023-01-31T08:17:09.879Z,23.27
2023-01-31T08:19:41.416Z,19.55
2023-01-31T08:22:13.139Z,20.48
2023-01-31T08:24:46.111Z,21.42
2023-01-31T08:27:21.344Z,18.52
2023-01-31T08:29:59.043Z,19.90
2023-01-31T08:32:30.781Z,18.88
2023-01-31T08:35:01.892Z,22.73
2023-01-31T08:37:34.583Z,20.58
2023-01-31T08:40:33.653Z,17.77
2023-01-31T08:43:25.523Z,19.83
2023-01-31T08:46:18.900Z,24.10
2023-01-31T08:48:50.015Z,18.70
2023-01-31T08:51:22.668Z,19.85
2023-01-31T08:53:56.316Z,18.13
2023-01-31T08:56:27.816Z,17.88
2023-01-31T08:59:03.011Z,18.23
2023-01-31T09:01:34.819Z,19.65
2023-01-31T09:04:10.025Z,18.02
2023-01-31T09:07:01.904Z,15.52
2023-01-31T09:09:33.904Z,17.13
2023-01-31T09:12:08.806Z,19.45
2023-01-31T09:14:49.500Z,22.75
2023-01-31T09:17:22.462Z,20.83
2023-01-31T09:19:55.621Z,22.58
2023-01-31T09:22:27.851Z,22.60
2023-01-31T09:25:00.864Z,19.40
2023-01-31T09:27:57.859Z,20.02
2023-01-31T09:30:33.380Z,19.30
2023-01-31T09:33:05.677Z,17.17
2023-01-31T09:36:04.773Z,20.15
2023-01-31T09:39:22.446Z,19.65
2023-01-31T09:42:20.191Z,18.25
2023-01-31T09:45:16.112Z,21.10
2023-01-31T09:47:54.007Z,19.60
2023-01-31T09:50:33.792Z,17.67
2023-01-31T09:53:06.559Z,20.70
2023-01-31T09:56:16.134Z,17.23
2023-01-31T09:59:25.593Z,17.38
2023-01-31T10:05:19.771Z,20.83
2023-01-31T10:07:54.713Z,17.73
2023-01-31T10:10:47.398Z,20.30
2023-01-31T10:13:53.565Z,16.77
2023-01-31T10:17:02.167Z,18.83
2023-01-31T10:19:53.806Z,18.10
2023-01-31T10:23:13.307Z,18.45
2023-01-31T10:26:00.587Z,16.27
2023-01-31T10:28:56.885Z,16.83
2023-01-31T10:32:00.162Z,20.27
2023-01-31T10:35:03.944Z,20.02
2023-01-31T10:37:56.718Z,23.15
2023-01-31T10:40:34.756Z,18.20
2023-01-31T10:43:28.912Z,22.80
2023-01-31T10:46:04.472Z,22.08
2023-01-31T10:48:55.666Z,16.90
2023-01-31T10:52:28.109Z,18.83
2023-01-31T10:55:45.133Z,19.23
2023-01-31T10:58:24.315Z,18.38
2023-01-31T11:00:56.009Z,19.17
2023-01-31T11:03:33.038Z,21.90
2023-01-31T11:06:04.154Z,19.75
2023-01-31T11:08:53.909Z,18.90
2023-01-31T11:12:01.152Z,22.48
2023-01-31T11:14:33.678Z,28.90
2023-01-31T11:17:14.979Z,23.95
2023-01-31T11:19:59.238Z,24.10
2023-01-31T11:25:08.907Z,24.08
2023-01-31T11:27:53.791Z,28.30
2023-01-31T11:30:32.614Z,29.42
2023-01-31T11:33:06.108Z,31.65
2023-01-31T11:35:43.480Z,33.13
2023-01-31T11:38:17.878Z,35.05
2023-01-31T11:41:36.069Z,34.00
2023-01-31T11:44:13.905Z,38.58
2023-01-31T11:46:55.566Z,43.08
2023-01-31T11:49:51.850Z,37.13
2023-01-31T11:52:33.334Z,42.92
2023-01-31T11:55:10.428Z,39.95
2023-01-31T11:57:57.784Z,41.67
2023-01-31T12:01:02.280Z,41.20
2023-01-31T12:03:34.170Z,42.47
2023-01-31T12:06:11.465Z,46.20
2023-01-31T12:08:46.436Z,50.80
2023-01-31T12:14:13.762Z,46.28
2023-01-31T12:20:01.427Z,53.63
2023-01-31T12:23:01.800Z,50.40
2023-01-31T12:26:07.266Z,49.65
2023-01-31T12:28:50.830Z,47.72
2023-01-31T12:31:44.613Z,58.42
2023-01-31T12:34:47.073Z,56.97
2023-01-31T12:37:33.532Z,54.85
2023-01-31T12:40:47.380Z,50.72
2023-01-31T12:44:14.439Z,53.67
2023-01-31T12:47:22.784Z,50.38
2023-01-31T12:50:06.095Z,54.70
2023-01-31T12:53:31.695Z,54.90
2023-01-31T12:56:31.921Z,53.95
2023-01-31T12:59:16.354Z,49.75
2023-01-31T13:02:13.090Z,52.95
2023-01-31T13:05:02.543Z,59.10
2023-01-31T13:07:38.157Z,47.38
2023-01-31T13:10:36.149Z,53.92
2023-01-31T13:13:14.313Z,47.80
2023-01-31T13:15:51.792Z,54.28
2023-01-31T13:21:22.353Z,51.67
2023-01-31T13:24:21.359Z,52.65
2023-01-31T13:27:06.059Z,55.22
2023-01-31T13:30:03.731Z,58.80
2023-01-31T13:32:45.833Z,50.75
2023-01-31T13:38:43.331Z,58.15
2023-01-31T13:41:34.312Z,52.25
2023-01-31T13:44:06.091Z,46.65
2023-01-31T13:47:06.684Z,48.70
2023-01-31T13:49:54.069Z,50.50
2023-01-31T13:52:55.372Z,49.28
2023-01-31T13:55:50.128Z,50.45
2023-01-31T13:58:38.409Z,47.60
2023-01-31T14:01:22.822Z,45.05
2023-01-31T14:04:17.146Z,44.83
2023-01-31T14:07:09.176Z,56.72
2023-01-31T14:09:59.801Z,50.25
2023-01-31T14:12:51.339Z,48.78
2023-01-31T14:15:49.967Z,50.00
2023-01-31T14:18:53.601Z,48.78
2023-01-31T14:21:34.021Z,52.30
2023-01-31T14:24:07.864Z,50.28
2023-01-31T14:26:47.614Z,45.08
2023-01-31T14:32:38.623Z,45.60
2023-01-31T14:35:16.110Z,47.90
2023-01-31T14:38:18.012Z,48.30
2023-01-31T14:41:27.672Z,46.67
2023-01-31T14:44:12.879Z,49.90
2023-01-31T14:47:07.972Z,48.58
2023-01-31T14:50:02.882Z,48.10
2023-01-31T14:55:51.175Z,42.50
2023-01-31T15:01:42.215Z,46.50
2023-01-31T15:04:24.636Z,44.85
2023-01-31T15:10:07.901Z,43.88
2023-01-31T15:13:03.411Z,47.13
2023-01-31T15:15:42.342Z,40.17
2023-01-31T15:18:27.760Z,48.97
2023-01-31T15:21:04.819Z,47.38
2023-01-31T15:23:40.768Z,44.25
2023-01-31T15:29:28.555Z,44.83
2023-01-31T15:32:26.492Z,40.13
2023-01-31T15:35:23.347Z,43.83
2023-01-31T15:38:12.623Z,37.42
2023-01-31T15:40:45.880Z,39.67
2023-01-31T15:43:23.595Z,43.20
2023-01-31T15:45:55.737Z,45.10
2023-01-31T15:48:27.363Z,43.20
2023-01-31T15:51:01.073Z,38.50
2023-01-31T15:53:36.286Z,45.30
2023-01-31T15:56:20.398Z,44.05
2023-01-31T16:01:39.341Z,45.30
2023-01-31T16:04:14.426Z,47.40
2023-01-31T16:06:46.614Z,36.05
2023-01-31T16:09:33.229Z,41.22
2023-01-31T16:12:05.621Z,38.03
2023-01-31T16:14:40.135Z,41.20
2023-01-31T16:17:12.499Z,40.70
2023-01-31T16:19:45.751Z,37.13
2023-01-31T16:22:32.801Z,39.30
2023-01-31T16:25:08.692Z,39.70
2023-01-31T16:28:05.876Z,37.85
2023-01-31T16:31:04.928Z,43.13
2023-01-31T16:34:01.581Z,38.58
2023-01-31T16:36:59.671Z,40.25
2023-01-31T16:39:56.298Z,39.90
2023-01-31T16:42:31.120Z,35.42
2023-01-31T16:45:08.650Z,40.10
2023-01-31T16:47:45.905Z,34.28
2023-01-31T16:50:36.779Z,34.10
2023-01-31T16:56:26.796Z,40.50
2023-01-31T16:59:44.479Z,38.05
2023-01-31T17:02:46.414Z,34.70
2023-01-31T17:05:22.055Z,40.50
2023-01-31T17:07:58.912Z,36.70
2023-01-31T17:10:33.558Z,38.17
2023-01-31T17:13:50.410Z,35.08
2023-01-31T17:16:29.541Z,34.60
2023-01-31T17:19:03.397Z,34.47
2023-01-31T17:21:41.831Z,34.95
2023-01-31T17:24:22.687Z,31.13
2023-01-31T17:26:54.786Z,35.55
2023-01-31T17:29:27.468Z,36.53
2023-01-31T17:31:59.974Z,31.15
2023-01-31T17:34:32.028Z,33.85
2023-01-31T17:37:04.146Z,35.33
2023-01-31T17:39:39.211Z,35.83
2023-01-31T17:42:20.503Z,34.47
2023-01-31T17:48:06.069Z,35.80
2023-01-31T17:50:37.408Z,31.27
2023-01-31T17:53:08.594Z,31.67
2023-01-31T17:55:40.236Z,30.92
2023-01-31T17:58:20.920Z,32.72
2023-01-31T18:00:52.175Z,34.33
2023-01-31T18:03:25.457Z,29.55
2023-01-31T18:05:57.703Z,32.03
2023-01-31T18:08:32.295Z,32.67
2023-01-31T18:11:12.628Z,31.30
2023-01-31T18:13:44.487Z,32.45
2023-01-31T18:16:20.331Z,34.72
2023-01-31T18:18:53.417Z,34.53
2023-01-31T18:21:25.563Z,30.92
2023-01-31T18:24:00.001Z,33.40
2023-01-31T18:26:35.551Z,35.40
2023-01-31T18:29:07.060Z,29.77
2023-01-31T18:31:39.272Z,31.00
2023-01-31T18:34:11.755Z,30.67
2023-01-31T18:36:42.769Z,25.83
2023-01-31T18:39:14.003Z,32.58
2023-01-31T18:41:45.396Z,35.13
2023-01-31T18:44:16.670Z,33.30
2023-01-31T18:46:47.895Z,33.75
2023-01-31T18:49:20.099Z,35.30
2023-01-31T18:51:51.313Z,35.25
2023-01-31T18:54:23.160Z,28.13
2023-01-31T18:56:54.294Z,31.20
2023-01-31T18:59:25.434Z,29.48
2023-01-31T19:01:56.461Z,29.98
2023-01-31T19:04:27.590Z,30.25
2023-01-31T19:06:58.730Z,29.80
2023-01-31T19:09:29.504Z,26.77
2023-01-31T19:12:00.228Z,27.35
2023-01-31T19:14:31.515Z,29.52
2023-01-31T19:17:02.441Z,29.08
2023-01-31T19:19:33.363Z,33.55
2023-01-31T19:22:05.080Z,26.73
2023-01-31T19:24:36.009Z,30.08
2023-01-31T19:27:07.007Z,29.20
2023-01-31T19:29:39.862Z,28.35
2023-01-31T19:32:11.005Z,28.20
2023-01-31T19:34:43.221Z,29.75
2023-01-31T19:37:14.194Z,26.42
2023-01-31T19:39:45.292Z,29.38
2023-01-31T19:42:16.245Z,31.92
2023-01-31T19:44:47.490Z,26.42
2023-01-31T19:47:19.841Z,29.67
2023-01-31T19:49:50.933Z,26.50
2023-01-31T19:52:22.007Z,26.30
2023-01-31T19:54:53.319Z,26.98
2023-01-31T19:57:24.923Z,33.58
2023-01-31T19:59:55.595Z,33.85
2023-01-31T20:02:26.922Z,28.02
2023-01-31T20:04:59.253Z,31.55
2023-01-31T20:07:30.086Z,26.23
2023-01-31T20:10:01.044Z,28.27
2023-01-31T20:12:32.023Z,29.70
2023-01-31T20:15:03.093Z,27.70
2023-01-31T20:17:53.789Z,30.02
2023-01-31T20:23:10.606Z,31.25
2023-01-31T20:26:02.700Z,29.05
2023-01-31T20:28:35.058Z,24.00
2023-01-31T20:31:11.535Z,26.02
2023-01-31T20:33:42.804Z,27.02
2023-01-31T20:36:16.823Z,31.33
2023-01-31T20:41:18.028Z,25.90
2023-01-31T20:43:49.820Z,27.73
2023-01-31T20:46:20.800Z,26.63
2023-01-31T20:49:16.974Z,26.85
2023-01-31T20:51:47.854Z,27.67
2023-01-31T20:54:18.546Z,30.48
2023-01-31T20:56:49.655Z,28.98
2023-01-31T20:59:21.294Z,26.10
2023-01-31T21:01:52.408Z,24.83
2023-01-31T21:04:23.521Z,26.15
2023-01-31T21:06:54.396Z,26.63
2023-01-31T21:09:25.013Z,28.98
2023-01-31T21:11:55.969Z,24.95
2023-01-31T21:14:27.165Z,24.88
2023-01-31T21:16:58.084Z,24.60
2023-01-31T21:19:29.362Z,26.50
2023-01-31T21:22:00.547Z,25.50
2023-01-31T21:24:31.642Z,26.02
2023-01-31T21:27:02.829Z,25.95
2023-01-31T21:29:33.621Z,25.88
2023-01-31T21:32:04.739Z,28.08
2023-01-31T21:34:35.865Z,27.00
2023-01-31T21:37:06.862Z,21.98
2023-01-31T21:39:37.838Z,23.15
2023-01-31T21:42:17.803Z,28.95
2023-01-31T21:44:49.973Z,28.85
2023-01-31T21:47:21.972Z,27.45
2023-01-31T21:49:52.960Z,26.50
2023-01-31T21:52:23.974Z,28.80
2023-01-31T21:54:55.056Z,31.35
2023-01-31T21:57:29.069Z,24.95
2023-01-31T22:00:00.038Z,24.67
2023-01-31T22:02:50.517Z,25.40
2023-01-31T22:05:21.336Z,26.40
2023-01-31T22:07:52.177Z,27.80
2023-01-31T22:10:23.441Z,23.77
2023-01-31T22:12:54.301Z,26.65
2023-01-31T22:18:30.631Z,30.88
2023-01-31T22:21:07.411Z,23.48
2023-01-31T22:23:40.056Z,22.98
2023-01-31T22:26:21.464Z,28.00
2023-01-31T22:28:53.297Z,26.70
2023-01-31T22:31:24.848Z,25.20
2023-01-31T22:33:57.658Z,31.92
2023-01-31T22:36:29.471Z,25.88
2023-01-31T22:39:23.368Z,27.25
2023-01-31T22:41:54.343Z,25.63
2023-01-31T22:44:25.814Z,27.67
2023-01-31T22:46:56.581Z,24.23
2023-01-31T22:49:27.263Z,24.25
2023-01-31T22:51:58.282Z,23.30
2023-01-31T22:54:28.983Z,23.50
2023-01-31T22:57:00.013Z,26.83
2023-01-31T22:59:30.815Z,23.70
2023-01-31T23:02:01.690Z,23.92
2023-01-31T23:04:32.782Z,27.52
2023-01-31T23:07:03.702Z,26.33
2023-01-31T23:09:34.759Z,24.15
2023-01-31T23:12:05.957Z,22.73
2023-01-31T23:14:37.026Z,25.75
2023-01-31T23:17:26.176Z,24.30
2023-01-31T23:19:57.385Z,28.83
2023-01-31T23:22:28.291Z,22.23
2023-01-31T23:24:59.351Z,23.67
2023-01-31T23:27:30.910Z,24.50
2023-01-31T23:30:01.952Z,21.00
2023-01-31T23:32:32.890Z,24.48
2023-01-31T23:35:04.961Z,26.05
2023-01-31T23:37:36.280Z,24.38
2023-01-31T23:40:09.756Z,24.17
2023-01-31T23:42:40.832Z,25.13
2023-01-31T23:45:12.424Z,27.17
2023-01-31T23:47:46.025Z,26.27
2023-01-31T23:50:20.777Z,23.83
2023-01-31T23:52:52.066Z,25.42
2023-01-31T23:55:24.194Z,25.58
2023-01-31T23:57:55.211Z,24.33
